Pleasant Grove, Texas
Current Conditions -  °F | °C
As of 12:55 AM on Thursday 27 Nov 2014 (Local Time) from KRFI Reporting Station
Clear Clear  
Wind Chill:   Ceiling: Unl
Heat Index:   Visibility: 10mi
Dew Point:   Wind: 5mph
Humidity: 56%   Direction: 330°NNW
Pressure: 30.38"   Gusts: NA
Location:  32.1449°N, 94.7416°W
Report Text: KRFI 270655Z AUTO 33004KT 10SM CLR 09/00 A3038 RMK AO2 T00850001
Loading
Personal Weather Stations






























Interactive Weather Map New forecast layout! Learn more

10-Day Weather Forecast

Advertisements
Track Severe Weather on mobile